Time;durP1;ratioP1;P1;durP2;ratioP2;P2;SDS_P1;SDS_P2;PMS_P1;PMS_P2;Temp;Humidity;BMP_temperature;BMP_pressure;BME280_temperature;BME280_humidity;BME280_pressure;Samples;Min_cycle;Max_cycle;Signal;HPM_P1;HPM_P2
2022/05/31 00:00:42;;;;;;;9.55;6.05;;;;;;;10.54;80.06;98622.11;1761040;81;25664;-63
2022/05/31 00:03:09;;;;;;;9.43;6.28;;;;;;;10.55;79.88;98622.93;1761626;81;25407;-63
2022/05/31 00:05:36;;;;;;;9.88;6.65;;;;;;;10.53;79.57;98623.24;1761033;80;27787;-63
2022/05/31 00:08:03;;;;;;;9.33;6.37;;;;;;;10.48;79.56;98618.47;1761304;81;25689;-63
2022/05/31 00:10:30;;;;;;;8.60;6.58;;;;;;;10.42;79.37;98622.66;1761520;81;25669;-62
2022/05/31 00:12:56;;;;;;;11.95;7.33;;;;;;;10.35;79.19;98620.94;1761615;81;26505;-63
2022/05/31 00:15:23;;;;;;;9.68;6.37;;;;;;;10.35;79.53;98613.27;1761992;81;25549;-63
2022/05/31 00:17:50;;;;;;;11.03;6.75;;;;;;;10.41;79.20;98612.84;1761219;81;27520;-63
2022/05/31 00:20:17;;;;;;;13.00;9.40;;;;;;;10.36;79.01;98602.00;1761351;81;25640;-61
2022/05/31 00:22:45;;;;;;;10.50;8.83;;;;;;;10.38;79.50;98600.32;1761251;81;25720;-61
2022/05/31 00:25:14;;;;;;;12.03;8.00;;;;;;;10.40;79.53;98600.83;1761183;80;25482;-62
2022/05/31 00:27:40;;;;;;;10.53;7.78;;;;;;;10.40;79.24;98602.98;1761384;81;25423;-64
2022/05/31 00:30:08;;;;;;;11.28;8.75;;;;;;;10.33;79.37;98593.63;1761256;80;27631;-63
2022/05/31 00:32:38;;;;;;;14.38;8.20;;;;;;;10.31;79.40;98590.37;1761380;80;25591;-64
2022/05/31 00:35:10;;;;;;;12.00;8.90;;;;;;;10.27;79.63;98580.05;1761611;81;25661;-64
2022/05/31 00:37:37;;;;;;;11.10;7.50;;;;;;;10.24;79.70;98581.22;1761535;81;25594;-60
2022/05/31 00:40:05;;;;;;;10.43;7.75;;;;;;;10.21;79.67;98575.82;1761572;81;25464;-62
2022/05/31 00:42:49;;;;;;;10.45;6.90;;;;;;;10.20;79.78;98576.95;1761605;80;27590;-61
2022/05/31 00:45:15;;;;;;;10.08;7.10;;;;;;;10.22;79.91;98578.80;1761428;81;25751;-61
2022/05/31 00:47:42;;;;;;;9.65;7.20;;;;;;;10.22;80.21;98576.06;1761570;81;25674;-62
2022/05/31 00:50:16;;;;;;;9.73;7.58;;;;;;;10.25;80.35;98572.70;1761477;81;25535;-60
2022/05/31 00:52:47;;;;;;;20.50;12.20;;;;;;;10.26;80.01;98566.12;1784090;80;25739;-61
2022/05/31 00:55:24;;;;;;;9.80;7.30;;;;;;;10.23;79.85;98565.92;1760596;80;27333;-61
2022/05/31 00:58:15;;;;;;;10.00;7.33;;;;;;;10.21;79.84;98566.23;1791503;80;25550;-60
2022/05/31 01:00:41;;;;;;;;;;;;;;;10.19;80.06;98559.47;1794191;80;25460;-61
2022/05/31 01:03:12;;;;;;;11.00;7.62;;;;;;;10.05;80.01;98558.98;1791777;80;25556;-63
2022/05/31 01:05:39;;;;;;;11.35;8.80;;;;;;;9.95;80.35;98560.59;1792026;80;25445;-62
2022/05/31 01:08:06;;;;;;;11.40;8.10;;;;;;;9.96;80.59;98560.28;1791606;80;27843;-63
2022/05/31 01:10:32;;;;;;;13.40;8.58;;;;;;;9.94;80.88;98555.70;1760816;80;25510;-63
2022/05/31 01:12:59;;;;;;;10.90;7.95;;;;;;;9.90;81.12;98554.69;1760811;80;25663;-64
2022/05/31 01:15:25;;;;;;;10.82;8.10;;;;;;;9.85;81.00;98561.12;1791673;80;25589;-64
2022/05/31 01:17:50;;;;;;;9.95;7.80;;;;;;;9.84;80.91;98572.38;1791853;80;25736;-64
2022/05/31 01:20:20;;;;;;;15.30;9.60;;;;;;;9.83;80.89;98568.82;1791769;80;27535;-63
2022/05/31 01:22:51;;;;;;;15.95;10.80;;;;;;;9.84;81.02;98573.16;1792012;80;25423;-64
2022/05/31 01:25:46;;;;;;;11.78;8.95;;;;;;;9.89;80.94;98569.50;1791958;80;33627;-64
2022/05/31 01:28:45;;;;;;;10.50;8.05;;;;;;;9.92;80.96;98574.34;1791489;80;25765;-63
2022/05/31 01:31:54;;;;;;;12.82;8.18;;;;;;;9.91;81.00;98571.38;1724563;82;25690;-63
2022/05/31 01:34:26;;;;;;;12.68;8.03;;;;;;;9.82;80.94;98576.80;1724334;83;27650;-63
2022/05/31 01:36:55;;;;;;;10.48;7.30;;;;;;;9.82;81.08;98582.27;1723061;83;25934;-64
2022/05/31 01:39:30;;;;;;;10.25;7.62;;;;;;;9.81;80.96;98577.10;1724312;83;25533;-64
2022/05/31 01:42:07;;;;;;;9.98;7.47;;;;;;;9.78;80.89;98586.72;1723923;83;26370;-63
2022/05/31 01:44:37;;;;;;;11.05;7.30;;;;;;;9.75;80.76;98584.61;1724394;83;25448;-64
2022/05/31 01:47:04;;;;;;;12.07;7.72;;;;;;;9.72;80.79;98586.04;1724324;83;27370;-60
2022/05/31 01:49:35;;;;;;;11.60;7.90;;;;;;;9.68;80.76;98585.05;1724426;83;25503;-62
2022/05/31 01:52:04;;;;;;;9.60;7.50;;;;;;;9.66;80.72;98585.91;1704348;83;25697;-63
2022/05/31 01:54:32;;;;;;;10.95;7.50;;;;;;;9.61;80.43;98583.28;1686360;85;25695;-64
2022/05/31 01:57:02;;;;;;;9.83;6.97;;;;;;;9.49;80.69;98581.09;1686233;85;25775;-63
2022/05/31 01:59:33;;;;;;;10.15;7.12;;;;;;;9.42;80.69;98581.53;1686671;85;27417;-65
2022/05/31 02:02:00;;;;;;;;;;;;;;;9.43;81.04;98579.59;1687500;85;25640;-62
2022/05/31 02:04:26;;;;;;;11.88;8.48;;;;;;;9.46;80.94;98583.89;1686357;85;25717;-63
2022/05/31 02:07:10;;;;;;;11.85;7.15;;;;;;;9.45;80.85;98587.76;1718855;81;25687;-61
2022/05/31 02:09:19;;;;;;;9.73;6.67;;;;;;;9.45;80.90;98584.20;1767487;81;25642;-64
2022/05/31 02:11:45;;;;;;;9.58;6.90;;;;;;;9.46;81.00;98592.65;1772023;80;28184;-63
2022/05/31 02:14:11;;;;;;;11.43;7.03;;;;;;;9.45;80.97;98584.20;1772056;80;25424;-62
2022/05/31 02:16:37;;;;;;;11.48;6.97;;;;;;;9.43;80.91;98587.25;1771722;81;25637;-63
2022/05/31 02:19:17;;;;;;;11.08;7.90;;;;;;;9.40;81.00;98588.67;1772078;80;26222;-61
2022/05/31 02:21:43;;;;;;;12.10;8.30;;;;;;;9.40;80.86;98586.49;1771809;80;25648;-64
2022/05/31 02:24:13;;;;;;;10.38;7.55;;;;;;;9.38;80.89;98584.61;1771760;80;28478;-63
2022/05/31 02:26:42;;;;;;;11.00;7.60;;;;;;;9.36;80.89;98587.66;1772104;80;25620;-63
2022/05/31 02:29:12;;;;;;;9.48;7.35;;;;;;;9.32;81.10;98598.96;1772116;80;25684;-60
2022/05/31 02:31:41;;;;;;;13.60;8.08;;;;;;;9.28;81.21;98597.97;1771596;81;25625;-61
2022/05/31 02:34:10;;;;;;;11.85;7.80;;;;;;;9.23;81.08;98591.23;1771769;81;25635;-62
2022/05/31 02:36:37;;;;;;;10.53;8.10;;;;;;;9.25;81.20;98592.56;1771947;80;27436;-63
2022/05/31 02:39:05;;;;;;;9.73;7.45;;;;;;;9.26;81.21;98593.35;1771655;81;25629;-64
2022/05/31 02:41:31;;;;;;;9.78;7.30;;;;;;;9.27;81.05;98598.52;1771997;81;25412;-63
2022/05/31 02:43:59;;;;;;;11.20;7.72;;;;;;;9.26;80.60;98601.55;1772121;81;26333;-64
2022/05/31 02:46:26;;;;;;;10.95;7.92;;;;;;;9.26;80.82;98604.29;1772089;80;25463;-64
2022/05/31 02:48:52;;;;;;;11.10;7.33;;;;;;;9.23;80.59;98600.80;1772078;81;27366;-64
2022/05/31 02:51:18;;;;;;;11.25;7.47;;;;;;;9.19;80.76;98600.63;1771366;80;25773;-64
2022/05/31 02:53:44;;;;;;;12.45;8.08;;;;;;;9.16;80.64;98594.39;1761565;81;25486;-63
2022/05/31 02:56:10;;;;;;;9.05;7.15;;;;;;;9.04;81.43;98585.35;1761393;81;26300;-64
2022/05/31 02:58:37;;;;;;;10.80;8.38;;;;;;;8.92;81.28;98589.95;1761447;80;25692;-64
2022/05/31 03:01:22;;;;;;;12.78;8.80;;;;;;;8.88;81.48;98587.58;1761433;81;28435;-64
2022/05/31 03:03:48;;;;;;;11.35;8.78;;;;;;;8.84;81.28;98590.67;1761288;81;25653;-64
2022/05/31 03:06:14;;;;;;;11.28;8.50;;;;;;;8.83;81.20;98592.59;1761559;81;25722;-64
2022/05/31 03:08:40;;;;;;;10.82;8.13;;;;;;;8.83;81.43;98599.41;1761492;80;25661;-64
2022/05/31 03:11:11;;;;;;;10.25;7.37;;;;;;;8.87;81.47;98606.46;1761192;80;25686;-64
2022/05/31 03:13:39;;;;;;;10.93;7.87;;;;;;;8.89;81.46;98599.56;1761728;81;27426;-64
2022/05/31 03:16:05;;;;;;;10.23;7.75;;;;;;;8.90;81.65;98608.01;1761301;81;25842;-61
2022/05/31 03:18:36;;;;;;;11.15;7.87;;;;;;;8.98;81.93;98608.44;1761180;81;25641;-62
2022/05/31 03:21:06;;;;;;;;;;;;;;;9.01;81.90;98610.56;1763939;81;26303;-64
2022/05/31 03:23:40;;;;;;;9.28;6.55;;;;;;;9.04;81.83;98609.38;1760650;81;25726;-62
2022/05/31 03:26:10;;;;;;;8.93;6.97;;;;;;;9.02;81.97;98608.08;1761274;81;28329;-63
2022/05/31 03:28:37;;;;;;;9.45;7.47;;;;;;;8.94;82.03;98608.77;1761570;81;25427;-63
2022/05/31 03:31:04;;;;;;;11.78;8.33;;;;;;;8.90;82.18;98614.05;1761223;81;25412;-60
2022/05/31 03:33:31;;;;;;;10.03;7.92;;;;;;;8.92;82.32;98609.08;1761501;81;25728;-62
2022/05/31 03:35:57;;;;;;;13.08;7.55;;;;;;;8.94;82.52;98610.14;1761533;81;25571;-60
2022/05/31 03:38:23;;;;;;;11.78;8.78;;;;;;;8.95;82.59;98609.05;1761462;81;28141;-60
2022/05/31 03:41:01;;;;;;;9.38;7.75;;;;;;;8.98;82.88;98611.17;1761441;81;25443;-63
2022/05/31 03:43:33;;;;;;;12.70;8.68;;;;;;;9.16;83.06;98617.05;1761363;80;25432;-62
2022/05/31 03:46:00;;;;;;;11.22;8.33;;;;;;;9.38;82.69;98619.62;1761320;80;25590;-61
2022/05/31 03:48:27;;;;;;;10.15;7.40;;;;;;;9.60;82.33;98611.77;1761375;81;25657;-60
2022/05/31 03:51:03;;;;;;;10.95;7.25;;;;;;;9.66;82.29;98613.27;1761280;81;27928;-62
2022/05/31 03:53:30;;;;;;;10.32;7.85;;;;;;;9.74;82.38;98616.66;1781405;80;25894;-62
2022/05/31 03:55:56;;;;;;;11.63;8.35;;;;;;;9.83;82.61;98612.61;1786665;80;25427;-60
2022/05/31 03:58:23;;;;;;;11.20;8.40;;;;;;;9.99;83.05;98613.04;1786631;80;26252;-59
2022/05/31 04:00:49;;;;;;;12.10;9.15;;;;;;;10.16;83.28;98616.47;1755541;80;25664;-61
2022/05/31 04:03:16;;;;;;;12.33;8.90;;;;;;;10.42;83.42;98616.37;1786575;80;28203;-64
2022/05/31 04:05:42;;;;;;;12.95;9.10;;;;;;;10.51;81.73;98615.89;1782542;80;26002;-63
2022/05/31 04:08:12;;;;;;;17.70;12.60;;;;;;;10.46;81.07;98614.67;1786292;80;25593;-63
2022/05/31 04:10:41;;;;;;;12.55;9.58;;;;;;;10.52;82.52;98615.34;1786205;79;25589;-63
2022/05/31 04:13:08;;;;;;;12.15;9.78;;;;;;;10.59;81.91;98612.95;1786602;80;25450;-63
2022/05/31 04:15:34;;;;;;;12.93;9.35;;;;;;;10.81;83.27;98614.57;1785967;80;29534;-62
2022/05/31 04:18:02;;;;;;;11.88;9.45;;;;;;;10.95;81.84;98612.54;1786249;80;26074;-64
2022/05/31 04:20:29;;;;;;;11.33;8.45;;;;;;;11.11;81.03;98614.86;1786572;80;25746;-62
2022/05/31 04:25:28;;;;;;;11.50;9.03;;;;;;;11.48;81.27;98621.44;1710495;82;25664;-63
2022/05/31 04:27:54;;;;;;;17.87;12.45;;;;;;;11.65;80.61;98615.98;1685308;82;27401;-63
2022/05/31 04:30:20;;;;;;;16.25;10.15;;;;;;;11.80;81.09;98616.63;1699887;82;25536;-62
2022/05/31 04:32:46;;;;;;;12.85;9.03;;;;;;;12.00;80.22;98607.52;1709049;83;25539;-62
2022/05/31 04:35:12;;;;;;;11.33;8.38;;;;;;;12.08;80.10;98612.76;1708934;84;25539;-62
2022/05/31 04:37:38;;;;;;;12.07;9.00;;;;;;;12.22;80.30;98616.14;1685130;84;25652;-63
2022/05/31 04:40:06;;;;;;;11.30;8.75;;;;;;;12.40;79.61;98613.35;1708969;84;27403;-63
2022/05/31 04:42:33;;;;;;;13.43;9.03;;;;;;;12.57;79.29;98608.94;1708884;84;25984;-63
2022/05/31 04:44:58;;;;;;;11.68;9.10;;;;;;;12.70;78.98;98610.69;1708770;84;25525;-63
2022/05/31 04:47:24;;;;;;;10.93;9.18;;;;;;;12.83;78.96;98610.22;1709140;84;25459;-58
2022/05/31 04:49:50;;;;;;;10.98;8.60;;;;;;;12.85;77.85;98613.46;1708800;84;25498;-58
2022/05/31 04:52:16;;;;;;;10.90;8.80;;;;;;;12.93;77.83;98618.09;1688657;82;27500;-57
2022/05/31 04:54:43;;;;;;;10.23;7.55;;;;;;;12.99;77.54;98624.80;1672865;85;25753;-61
2022/05/31 04:57:09;;;;;;;13.78;8.45;;;;;;;13.04;76.20;98619.91;1673925;85;25573;-59
2022/05/31 04:59:35;;;;;;;11.80;8.38;;;;;;;13.05;76.90;98625.67;1679020;85;26479;-64
2022/05/31 05:02:01;;;;;;;9.95;8.88;;;;;;;13.11;77.03;98622.16;1708618;80;25466;-62
2022/05/31 05:04:27;;;;;;;13.08;8.90;;;;;;;13.27;77.14;98625.72;1780122;80;27527;-61
2022/05/31 05:06:53;;;;;;;11.18;8.58;;;;;;;13.39;76.90;98634.03;1779367;80;25596;-63
2022/05/31 05:09:20;;;;;;;11.53;9.13;;;;;;;13.53;76.94;98637.95;1779902;80;25654;-63
2022/05/31 05:11:46;;;;;;;12.50;9.05;;;;;;;13.69;76.88;98631.86;1779389;80;25593;-62
2022/05/31 05:14:13;;;;;;;12.68;9.30;;;;;;;13.77;76.57;98635.13;1779717;80;25623;-62
2022/05/31 05:16:39;;;;;;;12.60;9.65;;;;;;;13.90;76.42;98636.55;1779685;80;27568;-59
2022/05/31 05:19:06;;;;;;;10.58;8.75;;;;;;;14.03;75.58;98635.48;1779590;80;25471;-60
2022/05/31 05:21:33;;;;;;;12.78;9.45;;;;;;;14.11;73.63;98633.80;1774637;80;25785;-61
2022/05/31 05:23:59;;;;;;;12.05;8.85;;;;;;;14.18;74.03;98627.16;1779519;80;25619;-59
2022/05/31 05:26:26;;;;;;;10.28;8.28;;;;;;;14.17;74.47;98625.53;1779515;80;25671;-60
2022/05/31 05:31:40;;;;;;;8.55;7.42;;;;;;;14.54;74.93;98624.05;1779345;80;25420;-64
2022/05/31 05:34:06;;;;;;;9.43;7.03;;;;;;;14.50;70.95;98623.09;1779363;80;25597;-63
2022/05/31 05:36:32;;;;;;;9.60;6.75;;;;;;;14.41;70.34;98623.20;1779447;80;25449;-62
2022/05/31 05:38:59;;;;;;;10.20;7.58;;;;;;;14.39;69.52;98618.62;1779681;80;25662;-63
2022/05/31 05:41:29;;;;;;;9.55;6.20;;;;;;;14.34;71.75;98622.39;1779499;80;27485;-64
2022/05/31 05:43:56;;;;;;;13.75;8.13;;;;;;;14.46;68.86;98625.75;1779614;80;25461;-63
2022/05/31 05:46:26;;;;;;;12.10;8.60;;;;;;;14.34;70.45;98621.58;1779621;80;25556;-63
2022/05/31 05:48:54;;;;;;;8.08;6.35;;;;;;;14.45;71.09;98623.33;1716402;83;25499;-63
2022/05/31 05:51:28;;;;;;;9.60;7.87;;;;;;;14.42;68.50;98627.56;1779595;80;25451;-63
2022/05/31 05:53:55;;;;;;;9.30;6.55;;;;;;;14.36;69.75;98619.30;1773038;80;27446;-62
2022/05/31 05:56:23;;;;;;;10.00;7.28;;;;;;;14.31;67.61;98625.83;1766983;80;26127;-62
2022/05/31 05:58:50;;;;;;;11.80;8.30;;;;;;;14.29;69.20;98628.11;1771886;80;25640;-63
2022/05/31 06:01:29;;;;;;;10.10;7.80;;;;;;;14.41;70.04;98625.39;1772530;81;25618;-63
2022/05/31 06:04:15;;;;;;;9.78;7.47;;;;;;;14.62;69.15;98629.23;1772570;81;25436;-63
2022/05/31 06:06:44;;;;;;;10.78;7.55;;;;;;;14.66;68.54;98619.94;1772122;80;27439;-63
2022/05/31 06:09:16;;;;;;;10.88;8.10;;;;;;;14.73;68.08;98622.68;1772567;79;25429;-58
2022/05/31 06:11:53;;;;;;;18.17;16.20;;;;;;;14.77;68.08;98618.11;1772217;80;25408;-58
2022/05/31 06:14:49;;;;;;;12.58;9.00;;;;;;;14.86;67.62;98620.22;1772104;80;25660;-61
2022/05/31 06:17:21;;;;;;;13.60;8.95;;;;;;;14.92;67.45;98608.38;1773010;80;25608;-60
2022/05/31 06:19:50;;;;;;;7.33;6.08;;;;;;;15.09;67.30;98625.85;1772606;81;27476;-62
2022/05/31 06:22:18;;;;;;;8.85;5.70;;;;;;;15.26;65.42;98624.81;1772322;81;25442;-60
2022/05/31 06:24:45;;;;;;;7.12;6.42;;;;;;;15.35;64.15;98626.07;1772593;81;25436;-61
2022/05/31 06:27:12;;;;;;;11.10;7.03;;;;;;;15.41;64.79;98623.30;1772473;81;25649;-59
2022/05/31 06:29:38;;;;;;;8.33;6.85;;;;;;;15.72;64.63;98623.25;1772724;81;25695;-60
2022/05/31 06:32:06;;;;;;;7.17;5.75;;;;;;;15.72;64.63;98623.25;1772461;81;27411;-62
2022/05/31 06:34:33;;;;;;;7.30;6.25;;;;;;;15.94;62.88;98619.71;1772688;81;25448;-62
2022/05/31 06:37:09;;;;;;;8.00;6.37;;;;;;;16.06;62.64;98625.80;1772602;79;25750;-61
2022/05/31 06:39:38;;;;;;;9.70;6.33;;;;;;;16.24;63.38;98619.98;1772726;81;25616;-59
2022/05/31 06:42:06;;;;;;;6.80;5.87;;;;;;;16.30;61.79;98624.09;1772887;79;25561;-61
2022/05/31 06:44:38;;;;;;;10.48;6.42;;;;;;;16.21;61.16;98620.68;1772262;81;27496;-58
2022/05/31 06:47:06;;;;;;;7.30;6.00;;;;;;;16.33;62.27;98622.01;1772454;81;25920;-61
2022/05/31 06:49:34;;;;;;;12.25;6.62;;;;;;;16.51;61.38;98622.48;1772228;81;26380;-62
2022/05/31 06:57:35;;;;;;;8.43;6.53;;;;;;;17.01;57.46;98625.50;1789040;80;25677;-63
2022/05/31 07:00:04;;;;;;;8.18;5.90;;;;;;;17.20;60.80;98626.73;1789167;80;25674;-62
2022/05/31 07:02:30;;;;;;;8.45;5.28;;;;;;;17.43;56.16;98619.39;1788853;79;25589;-62
2022/05/31 07:05:11;;;;;;;7.80;7.00;;;;;;;17.40;56.27;98625.65;1789120;79;26036;-63
2022/05/31 07:07:38;;;;;;;6.85;5.70;;;;;;;17.60;55.72;98628.45;1789217;80;25564;-63
2022/05/31 07:10:07;;;;;;;10.55;7.97;;;;;;;17.67;55.63;98622.25;1789011;79;27356;-63
2022/05/31 07:12:34;;;;;;;9.60;7.62;;;;;;;17.87;55.67;98622.27;1789073;80;25403;-63
2022/05/31 07:15:01;;;;;;;8.50;6.08;;;;;;;18.18;55.15;98628.30;1789123;79;25435;-63
2022/05/31 07:17:27;;;;;;;6.80;5.53;;;;;;;18.25;54.25;98625.45;1789041;79;26214;-62
2022/05/31 07:19:54;;;;;;;6.83;5.20;;;;;;;18.24;53.94;98626.59;1789152;80;25675;-61
2022/05/31 07:22:19;;;;;;;12.13;6.65;;;;;;;18.34;54.06;98619.09;1789200;79;27543;-63
2022/05/31 07:24:46;;;;;;;7.75;5.55;;;;;;;18.54;53.57;98622.60;1789018;79;25833;-63
2022/05/31 07:27:12;;;;;;;8.43;6.08;;;;;;;18.58;52.20;98624.06;1788554;80;25584;-60
2022/05/31 07:29:38;;;;;;;8.28;5.53;;;;;;;18.55;52.89;98623.41;1797857;78;26371;-63
2022/05/31 07:32:07;;;;;;;7.20;5.97;;;;;;;18.55;52.25;98620.06;1801520;79;25849;-60
2022/05/31 07:34:34;;;;;;;10.60;9.50;;;;;;;18.63;53.69;98623.77;1801621;79;27162;-60
2022/05/31 07:37:00;;;;;;;8.73;5.47;;;;;;;18.92;52.65;98617.90;1801325;79;25756;-62
2022/05/31 07:39:27;;;;;;;9.68;5.12;;;;;;;19.13;52.88;98621.64;1801287;79;26151;-62
2022/05/31 07:41:54;;;;;;;6.80;5.20;;;;;;;19.36;51.23;98619.39;1787510;80;26028;-61
2022/05/31 07:44:21;;;;;;;7.00;5.30;;;;;;;19.36;50.38;98619.39;1786566;79;25707;-59
2022/05/31 07:46:48;;;;;;;8.08;4.85;;;;;;;19.69;51.07;98612.30;1786342;80;27467;-62
2022/05/31 07:49:15;;;;;;;8.33;4.90;;;;;;;19.94;50.03;98617.39;1785977;80;25669;-59
2022/05/31 07:51:42;;;;;;;6.22;5.00;;;;;;;20.37;50.29;98617.70;1783667;80;25867;-59
2022/05/31 07:54:08;;;;;;;9.30;4.80;;;;;;;20.58;47.60;98615.52;1775049;80;26198;-63
2022/05/31 07:56:35;;;;;;;5.70;4.62;;;;;;;20.63;46.62;98617.94;1767234;81;25664;-60
2022/05/31 07:59:01;;;;;;;5.08;4.58;;;;;;;20.72;49.04;98609.30;1768155;81;27325;-61
2022/05/31 08:01:28;;;;;;;6.45;4.22;;;;;;;21.17;48.40;98610.08;1767957;81;25611;-59
2022/05/31 08:03:55;;;;;;;5.72;4.10;;;;;;;21.59;46.60;98610.52;1767981;81;25580;-61
2022/05/31 08:06:26;;;;;;;6.22;4.83;;;;;;;21.78;46.24;98608.86;1768019;81;25431;-60
2022/05/31 08:08:52;;;;;;;;;;;;;;;22.11;46.02;98606.80;1770852;81;25624;-62
2022/05/31 08:11:24;;;;;;;4.45;4.05;;;;;;;22.06;46.14;98602.39;1768077;80;27688;-58
2022/05/31 08:13:51;;;;;;;6.30;4.22;;;;;;;22.16;44.44;98601.62;1767051;81;25634;-61
2022/05/31 08:16:21;;;;;;;4.78;4.30;;;;;;;22.19;45.64;98601.42;1768100;81;25790;-57
2022/05/31 08:18:49;;;;;;;7.70;3.58;;;;;;;22.30;45.41;98600.86;1768367;81;25649;-62
2022/05/31 08:21:21;;;;;;;5.05;3.80;;;;;;;22.46;44.11;98601.09;1768246;81;25642;-63
2022/05/31 08:23:48;;;;;;;3.47;3.02;;;;;;;22.60;41.06;98605.13;1768179;81;27725;-60
2022/05/31 08:26:14;;;;;;;6.30;3.80;;;;;;;22.59;41.58;98602.15;1767984;81;25468;-62
2022/05/31 08:28:41;;;;;;;12.23;10.58;;;;;;;22.59;42.98;98602.15;1768181;81;25687;-62
2022/05/31 08:31:11;;;;;;;2.80;2.55;;;;;;;22.79;43.02;98596.95;1767759;81;25635;-60
2022/05/31 08:33:38;;;;;;;;;;;;;;;23.00;41.62;98603.75;1770452;81;25597;-61
2022/05/31 08:36:06;;;;;;;4.62;2.62;;;;;;;22.93;39.00;98600.35;1767794;80;28609;-62
2022/05/31 08:38:33;;;;;;;5.95;2.50;;;;;;;22.72;38.21;98601.15;1767979;81;25411;-61
2022/05/31 08:41:22;;;;;;;4.92;2.58;;;;;;;22.64;40.36;98594.76;1768544;81;25409;-61
2022/05/31 08:43:59;;;;;;;3.05;2.37;;;;;;;22.98;40.02;98594.96;1768186;81;25640;-62
2022/05/31 08:46:49;;;;;;;3.30;2.20;;;;;;;23.34;39.83;98597.70;1768230;81;25400;-61
2022/05/31 08:52:06;;;;;;;2.47;2.27;;;;;;;23.75;36.82;98603.41;1706438;84;25455;-65
2022/05/31 08:57:35;;;;;;;3.50;2.30;;;;;;;23.64;37.18;98600.67;1717447;83;25692;-58
2022/05/31 09:00:10;;;;;;;3.58;2.85;;;;;;;23.61;36.78;98596.48;1717715;83;25764;-57
2022/05/31 09:02:55;;;;;;;3.40;2.40;;;;;;;23.89;38.35;98596.19;1717726;83;27387;-62
2022/05/31 09:05:27;;;;;;;3.33;2.60;;;;;;;24.27;36.11;98592.83;1717839;83;26057;-59
2022/05/31 09:08:07;;;;;;;3.22;2.22;;;;;;;24.46;36.78;98589.31;1717874;83;25726;-62
2022/05/31 09:10:39;;;;;;;;;;;;;;;24.67;36.34;98584.16;1703300;84;25611;-62
2022/05/31 09:13:39;;;;;;;4.28;2.10;;;;;;;24.75;34.85;98589.11;1700897;84;25688;-58
2022/05/31 09:16:34;;;;;;;4.87;2.10;;;;;;;24.92;36.42;98593.78;1700665;83;28125;-62
2022/05/31 09:19:05;;;;;;;1.82;1.67;;;;;;;25.34;34.65;98582.38;1700502;84;25752;-59
2022/05/31 09:21:45;;;;;;;3.77;2.30;;;;;;;25.46;33.88;98581.84;1699866;84;25872;-58
2022/05/31 09:24:15;;;;;;;4.70;2.22;;;;;;;25.67;33.19;98584.23;1700821;84;25559;-60
2022/05/31 09:27:00;;;;;;;;;;;;;;;25.83;31.94;98583.66;1703559;84;25548;-59
2022/05/31 09:29:38;;;;;;;1.92;1.15;;;;;;;25.98;31.28;98582.06;1686301;84;27436;-60
2022/05/31 09:32:38;;;;;;;2.33;1.07;;;;;;;26.23;30.00;98575.31;1667822;85;25766;-62
2022/05/31 09:35:42;;;;;;;2.33;1.40;;;;;;;25.99;27.89;98571.81;1669532;85;25641;-63
2022/05/31 09:38:26;;;;;;;2.67;1.00;;;;;;;25.42;26.92;98567.85;1669677;85;25714;-61
2022/05/31 09:41:09;;;;;;;2.47;1.20;;;;;;;24.91;26.70;98573.17;1669350;85;25521;-61
2022/05/31 09:43:58;;;;;;;2.00;1.05;;;;;;;24.52;26.50;98567.44;1668834;85;25912;-63
2022/05/31 09:47:02;;;;;;;2.67;1.90;;;;;;;24.59;27.30;98562.41;1669212;85;25473;-62
2022/05/31 09:49:48;;;;;;;1.70;1.60;;;;;;;24.86;25.84;98555.36;1784956;80;25656;-60
2022/05/31 09:52:42;;;;;;;1.25;0.88;;;;;;;25.16;26.35;98560.94;1784614;80;25671;-62
2022/05/31 09:58:15;;;;;;;0.82;0.82;;;;;;;25.35;24.89;98544.70;1739601;82;26787;-62
2022/05/31 10:01:25;;;;;;;1.75;1.20;;;;;;;25.20;27.04;98543.47;1719823;82;25792;-62
2022/05/31 10:04:01;;;;;;;1.40;1.00;;;;;;;25.78;24.79;98551.84;1739795;81;25577;-63
2022/05/31 10:06:30;;;;;;;0.93;0.90;;;;;;;26.28;25.56;98544.73;1707933;82;25495;-62
2022/05/31 10:09:01;;;;;;;1.37;1.02;;;;;;;26.90;25.42;98543.77;1708744;82;25492;-63
2022/05/31 10:11:43;;;;;;;0.93;0.90;;;;;;;27.24;24.67;98535.56;1734066;82;27410;-63
2022/05/31 10:14:25;;;;;;;1.85;0.80;;;;;;;27.36;23.08;98541.96;1737861;82;25613;-63
2022/05/31 10:16:54;;;;;;;2.17;1.10;;;;;;;27.48;25.08;98534.89;1739699;82;25432;-60
2022/05/31 10:19:28;;;;;;;0.90;0.80;;;;;;;27.41;23.73;98540.66;1739784;82;25653;-61
2022/05/31 10:21:56;;;;;;;1.37;1.10;;;;;;;26.74;24.13;98540.22;1739905;81;25499;-59
2022/05/31 10:24:26;;;;;;;0.90;0.70;;;;;;;26.57;24.54;98536.51;1739659;82;27432;-60
2022/05/31 10:27:15;;;;;;;;;;;;;;;26.97;23.21;98534.40;1742567;82;25444;-60
2022/05/31 10:29:52;;;;;;;1.72;0.80;;;;;;;26.51;23.61;98527.75;1738625;82;25697;-62
2022/05/31 10:32:35;;;;;;;1.12;1.00;;;;;;;26.25;24.37;98531.53;1739658;82;25649;-63
2022/05/31 10:35:25;;;;;;;1.95;0.95;;;;;;;26.30;25.38;98537.31;1739816;82;25468;-60
2022/05/31 10:38:09;;;;;;;3.00;0.90;;;;;;;26.48;24.98;98521.58;1740075;82;28481;-62
2022/05/31 10:41:04;;;;;;;2.42;1.50;;;;;;;27.02;26.01;98528.92;1739471;82;25692;-62
2022/05/31 10:43:44;;;;;;;2.10;1.07;;;;;;;27.86;25.92;98530.91;1739740;82;25673;-58
2022/05/31 10:46:33;;;;;;;1.25;1.00;;;;;;;28.21;23.76;98526.94;1739996;82;25587;-59
2022/05/31 10:49:17;;;;;;;1.87;1.30;;;;;;;28.46;23.60;98529.17;1739786;82;25469;-62
2022/05/31 10:52:22;;;;;;;3.95;1.65;;;;;;;28.76;24.02;98523.02;1739905;82;27452;-61
2022/05/31 10:55:17;;;;;;;1.52;1.20;;;;;;;28.60;24.42;98528.03;1753030;80;25969;-61
2022/05/31 10:58:32;;;;;;;1.67;1.25;;;;;;;28.78;24.47;98521.94;1768207;81;25581;-61
2022/05/31 11:01:25;;;;;;;1.50;1.20;;;;;;;29.12;25.02;98517.66;1768003;81;25605;-63
2022/05/31 11:04:02;;;;;;;2.37;1.30;;;;;;;29.10;22.40;98515.92;1768317;81;25431;-61
2022/05/31 11:06:49;;;;;;;2.42;1.27;;;;;;;28.33;23.84;98513.60;1767677;81;27335;-61
2022/05/31 11:12:38;;;;;;;3.47;1.70;;;;;;;28.93;25.35;98505.43;1768225;81;25538;-62
2022/05/31 11:15:26;;;;;;;2.15;1.47;;;;;;;29.23;24.21;98506.89;1768289;81;25412;-62
2022/05/31 11:18:07;;;;;;;2.20;1.47;;;;;;;29.54;24.59;98503.60;1761424;81;25427;-62
2022/05/31 11:20:54;;;;;;;1.70;1.30;;;;;;;30.11;24.79;98493.86;1768124;81;27423;-61
2022/05/31 11:23:40;;;;;;;1.75;1.40;;;;;;;30.65;23.56;98498.38;1766695;81;25641;-62
2022/05/31 11:26:37;;;;;;;1.77;1.47;;;;;;;30.18;23.47;98496.48;1767857;81;25525;-61
2022/05/31 11:29:47;;;;;;;1.40;1.12;;;;;;;30.31;23.93;98494.27;1739417;82;25466;-62
2022/05/31 11:32:37;;;;;;;2.67;1.60;;;;;;;30.81;22.82;98492.42;1739366;82;25631;-62
2022/05/31 11:35:27;;;;;;;2.25;1.50;;;;;;;30.59;23.89;98487.47;1738936;82;27392;-62
2022/05/31 11:38:04;;;;;;;2.27;1.37;;;;;;;30.20;23.79;98481.89;1737383;82;25518;-61
2022/05/31 11:40:41;;;;;;;2.80;2.27;;;;;;;29.92;23.53;98483.73;1739570;82;25827;-60
2022/05/31 11:44:02;;;;;;;1.95;1.32;;;;;;;30.21;25.03;98481.25;1739067;82;25559;-60
2022/05/31 11:46:40;;;;;;;1.30;1.20;;;;;;;30.59;22.73;98472.56;1739516;82;25529;-61
2022/05/31 11:49:27;;;;;;;2.15;1.60;;;;;;;29.93;23.04;98466.95;1739704;82;28098;-60
2022/05/31 11:52:08;;;;;;;2.15;1.40;;;;;;;29.65;24.02;98466.59;1736809;82;25846;-61
2022/05/31 11:58:48;;;;;;;1.70;1.47;;;;;;;29.83;24.05;98457.40;1739481;82;25807;-58
2022/05/31 12:01:32;;;;;;;2.50;2.12;;;;;;;30.24;24.58;98451.47;1739176;82;25525;-63
2022/05/31 12:04:12;;;;;;;1.52;1.40;;;;;;;30.15;23.57;98452.14;1739173;82;28851;-62
2022/05/31 12:06:47;;;;;;;3.15;1.70;;;;;;;30.37;22.85;98453.48;1766004;81;25641;-62
2022/05/31 12:09:27;;;;;;;1.85;1.62;;;;;;;30.82;23.84;98455.81;1768647;81;25636;-63
2022/05/31 12:12:01;;;;;;;2.00;1.60;;;;;;;30.74;23.62;98448.17;1685913;83;25771;-59
2022/05/31 12:14:31;;;;;;;2.85;1.70;;;;;;;29.85;23.59;98444.42;1681001;85;25664;-62
2022/05/31 12:16:58;;;;;;;1.67;1.57;;;;;;;29.37;24.93;98439.98;1686058;85;27481;-62
2022/05/31 12:19:47;;;;;;;2.47;1.47;;;;;;;29.20;24.76;98437.25;1662662;85;25824;-62
2022/05/31 12:22:22;;;;;;;3.12;1.80;;;;;;;29.60;24.63;98435.30;1685911;85;25657;-62
2022/05/31 12:25:11;;;;;;;1.77;1.67;;;;;;;29.92;25.30;98423.63;1681815;85;25855;-62
2022/05/31 12:27:46;;;;;;;2.67;1.90;;;;;;;29.74;23.94;98432.66;1684948;85;25573;-62